createdAt,value
2017-04-06T00:00:03.375Z,99.99
2017-04-06T00:05:02.780Z,99.99
2017-04-06T00:10:03.557Z,99.99
2017-04-06T00:15:03.339Z,99.99
2017-04-06T00:20:03.245Z,99.99
2017-04-06T00:25:02.957Z,99.99
2017-04-06T00:30:02.764Z,99.99
2017-04-06T00:35:03.549Z,99.99
2017-04-06T00:40:03.297Z,99.99
2017-04-06T00:45:02.977Z,99.99
2017-04-06T00:50:03.690Z,99.99
2017-04-06T00:55:03.377Z,99.99
2017-04-06T01:00:03.172Z,99.99
2017-04-06T01:05:02.883Z,99.99
2017-04-06T01:10:03.701Z,99.77
2017-04-06T01:15:03.471Z,99.77
2017-04-06T01:20:03.327Z,99.49
2017-04-06T01:25:03.006Z,99.06
2017-04-06T01:30:03.626Z,98.87
2017-04-06T01:35:03.267Z,98.77
2017-04-06T01:40:03.077Z,98.68
2017-04-06T01:45:02.770Z,98.02
2017-04-06T01:50:03.572Z,97.92
2017-04-06T01:55:03.170Z,97.45
2017-04-06T02:00:02.766Z,97.07
2017-04-06T02:05:03.387Z,96.97
2017-04-06T02:10:03.238Z,96.59
2017-04-06T02:15:03.003Z,96.41
2017-04-06T02:20:02.847Z,96.31
2017-04-06T02:25:03.804Z,96.08
2017-04-06T02:30:03.498Z,96.26
2017-04-06T02:35:03.162Z,96.26
2017-04-06T02:40:02.994Z,96.17
2017-04-06T02:45:02.855Z,96.08
2017-04-06T02:50:03.575Z,95.98
2017-04-06T02:55:03.243Z,95.79
2017-04-06T03:00:02.858Z,95.5
2017-04-06T03:05:03.551Z,95.31
2017-04-06T03:10:03.236Z,94.74
2017-04-06T03:15:02.953Z,94.65
2017-04-06T03:20:03.657Z,94.46
2017-04-06T03:25:03.383Z,94.89
2017-04-06T03:30:03.200Z,95.17
2017-04-06T03:35:02.861Z,95.84
2017-04-06T03:40:03.671Z,95.93
2017-04-06T03:45:03.452Z,96.22
2017-04-06T03:50:03.244Z,96.41
2017-04-06T03:55:02.965Z,96.31
2017-04-06T04:00:02.834Z,96.22
2017-04-06T04:05:03.897Z,96.22
2017-04-06T04:10:03.528Z,96.5
2017-04-06T04:15:03.260Z,96.97
2017-04-06T04:20:03.076Z,97.17
2017-04-06T04:25:02.755Z,97.26
2017-04-06T04:30:03.273Z,97.45
2017-04-06T04:35:02.911Z,97.55
2017-04-06T04:40:03.762Z,97.55
2017-04-06T04:45:03.572Z,97.74
2017-04-06T04:50:03.035Z,97.92
2017-04-06T04:55:03.630Z,98.02
2017-04-06T05:00:03.290Z,98.3
2017-04-06T05:05:02.923Z,98.68
2017-04-06T05:10:03.649Z,98.97
2017-04-06T05:15:03.223Z,99.26
2017-04-06T05:20:02.869Z,99.99
2017-04-06T05:25:03.525Z,99.99
2017-04-06T05:30:03.351Z,99.99
2017-04-06T05:35:02.993Z,99.99
2017-04-06T05:40:03.640Z,99.99
2017-04-06T05:45:03.647Z,99.99
2017-04-06T05:50:03.406Z,99.99
2017-04-06T05:55:03.038Z,99.99
2017-04-06T06:00:03.757Z,99.99
2017-04-06T06:05:03.516Z,99.99
2017-04-06T06:10:03.173Z,99.99
2017-04-06T06:15:02.933Z,99.99
2017-04-06T06:20:03.653Z,99.99
2017-04-06T06:25:03.430Z,99.99
2017-04-06T06:30:03.205Z,99.99
2017-04-06T06:35:02.949Z,99.99
2017-04-06T06:40:02.761Z,99.99
2017-04-06T06:45:03.602Z,99.99
2017-04-06T06:50:03.226Z,99.99
2017-04-06T06:55:02.933Z,99.99
2017-04-06T07:00:03.607Z,99.99
2017-04-06T07:05:03.422Z,99.99
2017-04-06T07:10:03.214Z,99.99
2017-04-06T07:15:02.922Z,99.99
2017-04-06T07:20:03.612Z,99.99
2017-04-06T07:25:03.320Z,99.99
2017-04-06T07:30:03.469Z,99.99
2017-04-06T07:35:03.256Z,99.99
2017-04-06T07:40:03.215Z,99.99
2017-04-06T07:45:02.766Z,99.99
2017-04-06T07:50:03.576Z,99.99
2017-04-06T07:55:03.392Z,99.99
2017-04-06T08:00:03.037Z,99.99
2017-04-06T08:05:03.122Z,99.99
2017-04-06T08:10:02.996Z,99.99
2017-04-06T08:15:03.650Z,99.99
2017-04-06T08:20:03.292Z,99.99
2017-04-06T08:25:02.946Z,99.99
2017-04-06T08:30:03.807Z,99.99
2017-04-06T08:35:03.569Z,99.99
2017-04-06T08:40:03.172Z,99.99
2017-04-06T08:45:02.976Z,99.99
2017-04-06T08:50:03.790Z,99.99
2017-04-06T08:55:03.461Z,99.99
2017-04-06T09:00:03.117Z,99.99
2017-04-06T09:05:03.055Z,99.99
2017-04-06T09:10:03.711Z,99.99
2017-04-06T09:15:03.364Z,99.99
2017-04-06T09:20:02.994Z,99.99
2017-04-06T09:25:03.611Z,99.99
2017-04-06T09:30:03.600Z,99.99
2017-04-06T09:35:03.430Z,99.99
2017-04-06T09:40:03.171Z,99.99
2017-04-06T09:45:02.792Z,99.99
2017-04-06T09:50:03.394Z,99.99
2017-04-06T09:55:03.049Z,99.99
2017-04-06T10:00:02.866Z,99.99
2017-04-06T10:05:02.738Z,99.99
2017-04-06T10:10:03.571Z,99.99
2017-04-06T10:15:03.248Z,99.99
2017-04-06T10:20:02.910Z,99.99
2017-04-06T10:25:03.677Z,99.99
2017-04-06T10:30:03.410Z,99.57
2017-04-06T10:35:03.152Z,97.66
2017-04-06T10:40:03.179Z,96.7
2017-04-06T10:45:03.206Z,94.51
2017-04-06T10:50:02.928Z,94.51
2017-04-06T10:55:03.635Z,94.07
2017-04-06T11:00:03.294Z,94.65
2017-04-06T11:05:02.820Z,93.65
2017-04-06T11:10:03.659Z,93.74
2017-04-06T11:15:03.272Z,92.12
2017-04-06T11:20:02.919Z,91.36
2017-04-06T11:25:03.581Z,92.17
2017-04-06T11:30:03.531Z,92.36
2017-04-06T11:35:03.136Z,92.07
2017-04-06T11:40:02.914Z,92.26
2017-04-06T11:45:03.548Z,92.46
2017-04-06T11:50:03.208Z,93.02
2017-04-06T11:55:03.110Z,92.74
2017-04-06T12:00:02.879Z,92.55
2017-04-06T12:05:03.467Z,92.26
2017-04-06T12:10:03.259Z,92.31
2017-04-06T12:15:03.005Z,91.83
2017-04-06T12:20:03.622Z,92.02
2017-04-06T12:25:03.470Z,91.74
2017-04-06T12:30:03.281Z,91.16
2017-04-06T12:35:02.976Z,90.88
2017-04-06T12:40:02.763Z,91.45
2017-04-06T12:45:03.623Z,90.5
2017-04-06T12:50:03.530Z,90.4
2017-04-06T12:55:03.691Z,90.5
2017-04-06T13:00:02.722Z,90.88
2017-04-06T13:05:03.571Z,90.97
2017-04-06T13:10:02.789Z,90.93
2017-04-06T13:15:03.683Z,90.97
2017-04-06T13:20:03.521Z,90.31
2017-04-06T13:25:03.316Z,88.97
2017-04-06T13:30:02.910Z,88.78
2017-04-06T13:35:03.719Z,88.3
2017-04-06T13:40:03.724Z,89.25
2017-04-06T13:45:03.414Z,90.45
2017-04-06T13:50:03.201Z,90.59
2017-04-06T13:55:02.881Z,89.83
2017-04-06T14:00:03.648Z,89.54
2017-04-06T14:05:03.257Z,89.45
2017-04-06T14:10:02.882Z,87.96
2017-04-06T14:15:03.535Z,88.4
2017-04-06T14:20:03.200Z,88.78
2017-04-06T14:25:02.999Z,88.83
2017-04-06T14:30:02.846Z,89.12
2017-04-06T14:35:03.465Z,89.88
2017-04-06T14:40:03.350Z,90.73
2017-04-06T14:45:03.166Z,91.6
2017-04-06T14:50:02.782Z,92.26
2017-04-06T14:55:03.427Z,91.98
2017-04-06T15:00:03.205Z,91.6
2017-04-06T15:05:03.015Z,90.97
2017-04-06T15:10:02.795Z,91.93
2017-04-06T15:15:03.529Z,91.98
2017-04-06T15:20:03.242Z,92.07
2017-04-06T15:25:03.132Z,91.5
2017-04-06T15:30:02.755Z,91.31
2017-04-06T15:35:03.501Z,90.73
2017-04-06T15:40:03.225Z,90.64
2017-04-06T15:45:03.013Z,90.4
2017-04-06T15:50:02.804Z,90.11
2017-04-06T15:55:03.494Z,89.45
2017-04-06T16:00:03.114Z,89.35
2017-04-06T16:05:02.837Z,88.4
2017-04-06T16:10:03.639Z,88.3
2017-04-06T16:15:03.436Z,87.92
2017-04-06T16:20:03.145Z,87.35
2017-04-06T16:25:03.004Z,86.58
2017-04-06T16:30:02.803Z,86.91
2017-04-06T16:35:03.633Z,86.2
2017-04-06T16:40:03.364Z,85.82
2017-04-06T16:45:03.034Z,87.68
2017-04-06T16:50:03.718Z,87.21
2017-04-06T16:55:03.510Z,88.16
2017-04-06T17:00:03.589Z,87.93
2017-04-06T17:05:03.306Z,88.98
2017-04-06T17:10:03.080Z,88.78
2017-04-06T17:15:02.923Z,90.31
2017-04-06T17:20:03.603Z,90.59
2017-04-06T17:25:03.401Z,90.93
2017-04-06T17:30:03.072Z,91.98
2017-04-06T17:35:03.016Z,92.55
2017-04-06T17:40:02.837Z,91.79
2017-04-06T17:45:03.575Z,91.69
2017-04-06T17:50:03.306Z,91.5
2017-04-06T17:55:03.214Z,91.69
2017-04-06T18:00:03.041Z,92.22
2017-04-06T18:05:03.712Z,93.27
2017-04-06T18:10:03.459Z,93.55
2017-04-06T18:15:03.146Z,94.27
2017-04-06T18:20:02.996Z,95.32
2017-04-06T18:25:03.663Z,96.17
2017-04-06T18:30:03.367Z,96.94
2017-04-06T18:35:03.174Z,97.65
2017-04-06T18:40:02.951Z,98.98
2017-04-06T18:45:02.757Z,99.93
2017-04-06T18:50:03.589Z,99.99
2017-04-06T18:55:03.468Z,99.99
2017-04-06T19:00:03.210Z,99.99
2017-04-06T19:05:03.055Z,99.99
2017-04-06T19:10:02.938Z,99.99
2017-04-06T19:15:03.758Z,99.99
2017-04-06T19:20:03.476Z,99.99
2017-04-06T19:25:03.226Z,99.99
2017-04-06T19:30:02.923Z,99.99
2017-04-06T19:35:03.657Z,99.99
2017-04-06T19:40:03.531Z,99.99
2017-04-06T19:45:03.319Z,99.99
2017-04-06T19:50:03.145Z,99.99
2017-04-06T19:55:02.859Z,99.99
2017-04-06T20:00:03.695Z,99.99
2017-04-06T20:05:03.359Z,99.99
2017-04-06T20:10:03.242Z,99.99
2017-04-06T20:15:02.893Z,99.99
2017-04-06T20:20:03.662Z,99.99
2017-04-06T20:25:03.506Z,99.99
2017-04-06T20:30:03.092Z,99.99
2017-04-06T20:35:02.841Z,99.99
2017-04-06T20:40:03.687Z,99.99
2017-04-06T20:45:03.351Z,99.99
2017-04-06T20:50:03.147Z,99.99
2017-04-06T20:55:02.772Z,99.99
2017-04-06T21:00:03.801Z,99.99
2017-04-06T21:05:03.581Z,99.99
2017-04-06T21:10:03.389Z,99.99
2017-04-06T21:15:03.022Z,99.99
2017-04-06T21:20:03.699Z,99.99
2017-04-06T21:25:03.319Z,99.99
2017-04-06T21:30:02.901Z,99.99
2017-04-06T21:35:03.591Z,99.99
2017-04-06T21:40:03.458Z,99.99
2017-04-06T21:45:03.187Z,99.99
2017-04-06T21:50:02.923Z,99.99
2017-04-06T21:55:03.566Z,99.99
2017-04-06T22:00:03.263Z,99.99
2017-04-06T22:05:03.028Z,99.99
2017-04-06T22:10:02.795Z,99.99
2017-04-06T22:15:03.529Z,99.99
2017-04-06T22:20:03.299Z,99.99
2017-04-06T22:25:02.964Z,99.99
2017-04-06T22:30:03.693Z,99.99
2017-04-06T22:35:03.510Z,99.99
2017-04-06T22:40:03.340Z,99.99
2017-04-06T22:45:03.009Z,99.99
2017-04-06T22:50:02.750Z,99.99
2017-04-06T22:55:03.515Z,99.99
2017-04-06T23:00:03.313Z,99.99
2017-04-06T23:05:03.455Z,99.99
2017-04-06T23:10:03.231Z,99.99
2017-04-06T23:15:03.003Z,99.99
2017-04-06T23:20:02.763Z,99.99
2017-04-06T23:25:03.491Z,99.99
2017-04-06T23:30:03.242Z,99.99
2017-04-06T23:35:02.950Z,99.99
2017-04-06T23:40:03.834Z,99.99
2017-04-06T23:45:03.563Z,99.99
2017-04-06T23:50:03.308Z,99.99
2017-04-06T23:55:03.021Z,99.99
